Time;durP1;ratioP1;P1;durP2;ratioP2;P2;SDS_P1;SDS_P2;PMS_P1;PMS_P2;Temp;Humidity;BMP_temperature;BMP_pressure;BME280_temperature;BME280_humidity;BME280_pressure;Samples;Min_cycle;Max_cycle;Signal;HPM_P1;HPM_P2
2022/11/10 06:01:30;;;;;;;;;;;;;;;13.76;81.10;97601.78;4221972;27;10365;-73
2022/11/10 06:03:33;;;;;;;;;;;;;;;14.03;80.11;97598.25;4229552;28;5759;-73
2022/11/10 06:05:36;;;;;;;;;;;;;;;14.23;79.65;97609.03;4214878;28;5773;-72
2022/11/10 06:07:39;;;;;;;;;;;;;;;14.39;79.13;97606.06;4229153;28;5801;-73
2022/11/10 06:09:42;;;;;;;;;;;;;;;14.51;78.52;97611.66;4227266;28;5636;-73
2022/11/10 06:11:45;;;;;;;;;;;;;;;14.60;78.26;97613.13;4224430;28;5802;-73
2022/11/10 06:13:47;;;;;;;;;;;;;;;14.68;78.09;97618.28;4218830;28;5647;-74
2022/11/10 06:15:50;;;;;;;;;;;;;;;14.75;77.75;97620.97;4228635;28;5802;-75
2022/11/10 06:17:55;;;;;;;;;;;;;;;14.79;77.49;97627.53;4228459;28;5886;-74
2022/11/10 06:19:57;;;;;;;;;;;;;;;14.84;77.26;97625.09;4230944;28;5762;-75
2022/11/10 06:22:00;;;;;;;;;;;;;;;14.85;76.97;97632.88;4228681;28;5783;-75
2022/11/10 06:24:10;;;;;;;;;;;;;;;14.90;76.82;97636.78;4223736;28;5796;-74
2022/11/10 06:26:13;;;;;;;;;;;;;;;14.90;76.70;97634.94;4226122;28;5085;-74
2022/11/10 06:28:16;;;;;;;;;;;;;;;14.94;76.63;97635.34;4230352;28;5725;-74
2022/11/10 06:30:18;;;;;;;;;;;;;;;14.95;76.20;97643.16;4221435;28;5771;-75
2022/11/10 06:32:21;;;;;;;;;;;;;;;14.97;76.04;97643.78;4228164;28;5673;-74
2022/11/10 06:34:25;;;;;;;;;;;;;;;14.98;75.99;97645.41;4227645;28;6378;-74
2022/11/10 06:36:28;;;;;;;;;;;;;;;14.98;75.68;97650.75;4222732;28;5694;-74
2022/11/10 06:38:31;;;;;;;;;;;;;;;15.01;75.78;97658.31;4217940;28;5673;-74
2022/11/10 06:40:34;;;;;;;;;;;;;;;15.02;75.55;97653.81;4229227;28;5672;-74
2022/11/10 06:42:37;;;;;;;;;;;;;;;15.02;75.44;97659.97;4229876;28;6011;-75
2022/11/10 06:44:39;;;;;;;;;;;;;;;15.02;75.16;97665.28;4221560;28;6006;-75
2022/11/10 06:46:44;;;;;;;;;;;;;;;15.02;74.97;97667.94;4216665;28;5832;-75
2022/11/10 06:48:46;;;;;;;;;;;;;;;15.02;74.93;97675.94;4223957;28;5701;-75
2022/11/10 06:50:50;;;;;;;;;;;;;;;15.02;74.72;97681.25;4225496;28;5693;-74
2022/11/10 06:52:54;;;;;;;;;;;;;;;15.03;74.78;97685.56;4224808;28;5676;-74
2022/11/10 06:54:57;;;;;;;;;;;;;;;15.06;74.57;97685.19;4223735;28;5677;-74
2022/11/10 06:57:00;;;;;;;;;;;;;;;15.06;74.30;97690.53;4224956;28;5678;-74
2022/11/10 06:59:03;;;;;;;;;;;;;;;15.05;74.28;97680.84;4219100;28;5787;-74
2022/11/10 07:01:06;;;;;;;;;;;;;;;15.08;73.97;97691.13;4221828;28;5729;-66
2022/11/10 07:03:12;;;;;;;;;;;;;;;15.08;73.86;97695.66;4217129;28;5846;-70
2022/11/10 07:05:15;;;;;;;;;;;;;;;15.09;73.76;97692.78;4215488;28;5696;-70
2022/11/10 07:07:19;;;;;;;;;;;;;;;15.10;73.73;97702.41;4215399;28;5673;-70
2022/11/10 07:09:22;;;;;;;;;;;;;;;15.10;73.50;97704.25;4219492;28;5732;-70
2022/11/10 07:11:25;;;;;;;;;;;;;;;15.12;73.33;97705.69;4219045;28;5689;-70
2022/11/10 07:13:27;;;;;;;;;;;;;;;15.12;73.22;97703.03;4219244;28;5808;-70
2022/11/10 07:15:32;;;;;;;;;;;;;;;15.12;73.16;97703.03;4219377;28;5684;-70
2022/11/10 07:17:39;;;;;;;;;;;;;;;15.12;73.03;97708.34;4219479;28;5677;-70
2022/11/10 07:19:42;;;;;;;;;;;;;;;15.11;72.65;97705.88;4219300;28;5685;-70
2022/11/10 07:21:45;;;;;;;;;;;;;;;15.13;72.73;97709.16;4219080;28;5759;-70
2022/11/10 07:23:49;;;;;;;;;;;;;;;15.14;72.86;97716.13;4219134;28;6374;-70
2022/11/10 07:25:52;;;;;;;;;;;;;;;15.14;72.82;97716.94;4219197;28;5672;-71
2022/11/10 07:27:55;;;;;;;;;;;;;;;15.14;72.50;97719.63;4219263;28;5673;-71
2022/11/10 07:29:58;;;;;;;;;;;;;;;15.17;72.52;97720.22;4219441;28;5665;-71
2022/11/10 07:32:01;;;;;;;;;;;;;;;15.20;72.20;97736.66;4219174;28;5900;-70
2022/11/10 07:34:03;;;;;;;;;;;;;;;15.21;72.22;97738.28;4219031;28;5780;-70
2022/11/10 07:36:07;;;;;;;;;;;;;;;15.22;72.08;97739.13;4218762;28;5649;-70
2022/11/10 07:38:11;;;;;;;;;;;;;;;15.23;72.13;97733.59;4219228;28;5767;-70
2022/11/10 07:40:16;;;;;;;;;;;;;;;15.23;71.92;97732.75;4218874;28;5733;-71
2022/11/10 07:42:18;;;;;;;;;;;;;;;15.24;71.78;97732.56;4218873;28;5653;-70
2022/11/10 07:44:21;;;;;;;;;;;;;;;15.25;71.83;97739.53;4218930;28;5804;-71
2022/11/10 07:46:24;;;;;;;;;;;;;;;15.26;71.73;97738.50;4219002;28;5673;-71
2022/11/10 07:48:27;;;;;;;;;;;;;;;15.25;71.57;97750.19;4218995;28;5688;-71
2022/11/10 07:50:30;;;;;;;;;;;;;;;15.30;71.51;97746.94;4218639;28;5680;-71
2022/11/10 07:52:33;;;;;;;;;;;;;;;15.31;71.48;97751.25;4218586;28;5759;-71
2022/11/10 07:54:36;;;;;;;;;;;;;;;15.33;71.48;97751.88;4218382;28;5677;-71
2022/11/10 07:56:41;;;;;;;;;;;;;;;15.35;71.42;97750.63;4218753;28;5888;-71
2022/11/10 07:58:44;;;;;;;;;;;;;;;15.37;70.97;97753.91;4218652;28;5676;-71
2022/11/10 08:00:47;;;;;;;;;;;;;;;15.38;71.05;97754.72;4218353;28;5649;-70
2022/11/10 08:02:51;;;;;;;;;;;;;;;15.41;71.07;97754.34;4218464;28;5661;-70
2022/11/10 08:04:53;;;;;;;;;;;;;;;15.41;71.02;97757.03;4218394;28;5677;-70
2022/11/10 08:06:57;;;;;;;;;;;;;;;15.40;70.73;97752.69;4218187;28;5669;-70
2022/11/10 08:09:00;;;;;;;;;;;;;;;15.41;70.84;97754.34;4218175;28;5823;-71
2022/11/10 08:11:06;;;;;;;;;;;;;;;15.43;70.88;97757.63;4211723;28;6399;-71
2022/11/10 08:13:13;;;;;;;;;;;;;;;15.44;70.63;97765.44;4200822;28;5905;-70
2022/11/10 08:15:16;;;;;;;;;;;;;;;15.46;70.45;97756.41;4201987;28;5718;-71
2022/11/10 08:17:19;;;;;;;;;;;;;;;15.47;70.55;97766.88;4201298;28;5693;-71
2022/11/10 08:19:22;;;;;;;;;;;;;;;15.48;70.39;97770.34;4201357;28;5699;-71
2022/11/10 08:21:25;;;;;;;;;;;;;;;15.51;70.26;97770.75;4201281;28;5849;-71
2022/11/10 08:23:29;;;;;;;;;;;;;;;15.52;70.25;97769.78;4201563;28;5806;-71
2022/11/10 08:25:34;;;;;;;;;;;;;;;15.53;70.02;97774.06;4201529;28;5695;-71
2022/11/10 08:27:38;;;;;;;;;;;;;;;15.53;69.95;97768.75;4212094;28;5687;-71
2022/11/10 08:29:42;;;;;;;;;;;;;;;15.54;69.86;97778.38;4218235;28;5673;-71
2022/11/10 08:31:45;;;;;;;;;;;;;;;15.55;69.88;97780.00;4218228;28;5656;-71
2022/11/10 08:33:48;;;;;;;;;;;;;;;15.57;69.71;97780.63;4218096;28;5783;-71
2022/11/10 08:35:52;;;;;;;;;;;;;;;15.58;69.76;97784.94;4217674;28;5673;-70
2022/11/10 08:37:55;;;;;;;;;;;;;;;15.59;69.68;97786.59;4218096;28;5794;-71
2022/11/10 08:39:58;;;;;;;;;;;;;;;15.60;69.66;97790.91;4218234;28;5716;-71
2022/11/10 08:42:01;;;;;;;;;;;;;;;15.60;69.67;97790.91;4217949;28;5672;-71
2022/11/10 08:44:04;;;;;;;;;;;;;;;15.61;69.59;97792.56;4217826;28;5689;-71
2022/11/10 08:46:14;;;;;;;;;;;;;;;15.64;69.46;97797.50;4218182;28;6370;-71
2022/11/10 08:48:18;;;;;;;;;;;;;;;15.66;69.44;97797.31;4217710;28;5735;-71
2022/11/10 08:50:20;;;;;;;;;;;;;;;15.68;69.31;97792.59;4217822;28;5680;-71
2022/11/10 08:52:23;;;;;;;;;;;;;;;15.70;69.21;97795.88;4217411;28;6248;-71
2022/11/10 08:54:26;;;;;;;;;;;;;;;15.70;69.25;97796.69;4217615;28;5739;-71
2022/11/10 08:56:29;;;;;;;;;;;;;;;15.71;69.07;97798.31;4217655;28;5728;-70
2022/11/10 08:58:32;;;;;;;;;;;;;;;15.70;69.12;97796.69;4215577;28;5700;-70
2022/11/10 09:00:35;;;;;;;;;;;;;;;15.72;69.09;97799.97;4200440;28;5806;-70
2022/11/10 09:02:39;;;;;;;;;;;;;;;15.73;69.06;97814.13;4200642;28;5789;-70
2022/11/10 09:04:42;;;;;;;;;;;;;;;15.74;68.93;97813.09;4200848;28;5682;-70
2022/11/10 09:06:45;;;;;;;;;;;;;;;15.75;68.94;97808.63;4200473;28;5705;-70
2022/11/10 09:08:48;;;;;;;;;;;;;;;15.75;68.78;97808.63;4200726;28;5702;-71
2022/11/10 09:10:51;;;;;;;;;;;;;;;15.76;68.73;97813.75;4200837;28;5686;-70
2022/11/10 09:12:54;;;;;;;;;;;;;;;15.78;68.56;97813.53;4213288;28;5673;-70
2022/11/10 09:14:56;;;;;;;;;;;;;;;15.77;68.54;97817.22;4217477;28;5665;-70
2022/11/10 09:16:59;;;;;;;;;;;;;;;15.78;68.40;97818.88;4217387;28;5878;-70
2022/11/10 09:19:03;;;;;;;;;;;;;;;15.78;68.10;97818.88;4217488;28;5798;-70
2022/11/10 09:21:10;;;;;;;;;;;;;;;15.77;68.16;97818.03;4216968;28;6338;-70
2022/11/10 09:23:15;;;;;;;;;;;;;;;15.80;68.07;97825.63;4217485;28;5783;-70
2022/11/10 09:25:18;;;;;;;;;;;;;;;15.85;67.97;97830.34;4217033;28;5783;-70
2022/11/10 09:27:21;;;;;;;;;;;;;;;15.86;67.60;97826.69;4217256;28;5677;-70
2022/11/10 09:29:24;;;;;;;;;;;;;;;15.85;67.77;97828.50;4217275;28;5744;-70
2022/11/10 09:31:27;;;;;;;;;;;;;;;15.89;67.89;97828.94;4207609;28;7048;-71
2022/11/10 09:33:30;;;;;;;;;;;;;;;15.91;67.62;97822.38;4200473;28;5686;-71
2022/11/10 09:35:34;;;;;;;;;;;;;;;15.92;67.66;97826.69;4200446;28;5701;-71
2022/11/10 09:37:39;;;;;;;;;;;;;;;15.94;67.28;97823.81;4200369;28;5785;-71
2022/11/10 09:39:42;;;;;;;;;;;;;;;15.95;67.47;97830.78;4200813;28;5690;-71
2022/11/10 09:41:46;;;;;;;;;;;;;;;15.96;67.27;97829.75;4200563;28;5678;-71
2022/11/10 09:44:01;;;;;;;;;;;;;;;15.96;67.17;97832.44;4200783;28;5872;-72
2022/11/10 09:46:13;;;;;;;;;;;;;;;15.97;67.13;97834.09;4208230;28;5690;-71
2022/11/10 09:48:22;;;;;;;;;;;;;;;15.99;67.21;97843.53;4208500;28;5706;-71
2022/11/10 09:50:34;;;;;;;;;;;;;;;16.00;66.95;97837.19;4209425;28;5748;-71
2022/11/10 09:52:39;;;;;;;;;;;;;;;16.01;66.79;97846.00;4214493;28;5735;-71
2022/11/10 09:54:48;;;;;;;;;;;;;;;15.99;66.81;97851.53;4200253;28;5702;-70
2022/11/10 09:56:55;;;;;;;;;;;;;;;15.98;66.48;97854.41;4208670;28;5690;-70
2022/11/10 09:58:58;;;;;;;;;;;;;;;15.97;66.59;97855.44;4214040;28;5692;-70
2022/11/10 10:01:15;;;;;;;;;;;;;;;15.98;66.63;97854.41;4210459;28;5765;-71
2022/11/10 10:03:25;;;;;;;;;;;;;;;15.98;66.48;97852.56;4208592;28;5681;-70
2022/11/10 10:05:45;;;;;;;;;;;;;;;15.99;66.44;97851.53;4217122;28;5665;-70
2022/11/10 10:08:02;;;;;;;;;;;;;;;16.03;66.28;97851.94;4217368;28;5819;-70
2022/11/10 10:10:15;;;;;;;;;;;;;;;16.04;66.21;97853.59;4217260;28;5932;-70
2022/11/10 10:12:37;;;;;;;;;;;;;;;16.05;66.06;97846.41;4215968;28;5664;-70
2022/11/10 10:14:51;;;;;;;;;;;;;;;16.06;65.95;97848.88;4217207;28;5665;-70
2022/11/10 10:17:00;;;;;;;;;;;;;;;16.12;65.78;97849.91;4216868;28;5822;-70
2022/11/10 10:19:20;;;;;;;;;;;;;;;16.17;65.78;97853.59;4210702;28;5679;-70
2022/11/10 10:21:40;;;;;;;;;;;;;;;16.21;65.46;97854.88;4200174;28;5823;-70
2022/11/10 10:23:48;;;;;;;;;;;;;;;16.24;65.39;97846.44;4200323;28;5711;-70
2022/11/10 10:26:15;;;;;;;;;;;;;;;16.25;65.39;97848.09;4200282;28;5822;-70
2022/11/10 10:28:28;;;;;;;;;;;;;;;16.28;65.39;97854.84;4200313;28;5808;-70
2022/11/10 10:30:31;;;;;;;;;;;;;;;16.28;65.39;97849.53;4200283;28;5790;-70
2022/11/10 10:32:35;;;;;;;;;;;;;;;16.28;65.28;97849.53;4200228;28;5690;-70
2022/11/10 10:34:38;;;;;;;;;;;;;;;16.29;65.23;97851.16;4202724;28;5837;-71
2022/11/10 10:36:43;;;;;;;;;;;;;;;16.23;64.92;97847.47;4217873;28;5776;-70
2022/11/10 10:38:51;;;;;;;;;;;;;;;16.22;65.12;97848.50;4220224;28;5680;-71
2022/11/10 10:40:58;;;;;;;;;;;;;;;16.23;64.85;97850.16;4220191;28;5689;-70
2022/11/10 10:43:01;;;;;;;;;;;;;;;16.21;64.90;97854.06;4220255;28;5814;-71
2022/11/10 10:45:20;;;;;;;;;;;;;;;16.19;64.91;97854.22;4219868;28;5673;-70
2022/11/10 10:47:36;;;;;;;;;;;;;;;16.15;64.94;97839.66;4219767;28;5744;-71
2022/11/10 10:49:39;;;;;;;;;;;;;;;16.18;64.79;97847.25;4219956;28;5759;-71
2022/11/10 10:51:42;;;;;;;;;;;;;;;16.18;64.62;97843.75;4219645;28;5743;-71
2022/11/10 10:53:47;;;;;;;;;;;;;;;16.15;64.61;97853.00;4220036;28;5776;-71
2022/11/10 10:55:58;;;;;;;;;;;;;;;16.16;64.47;97843.97;4219539;28;5938;-70
2022/11/10 10:58:03;;;;;;;;;;;;;;;16.18;64.64;97843.75;4220059;28;5664;-70
2022/11/10 11:00:20;;;;;;;;;;;;;;;16.19;64.29;97848.06;4219511;28;5661;-70
2022/11/10 11:02:26;;;;;;;;;;;;;;;16.24;64.42;97846.44;4219705;28;5755;-70
2022/11/10 11:04:33;;;;;;;;;;;;;;;16.26;64.21;97838.25;4219899;28;5744;-70
2022/11/10 11:06:36;;;;;;;;;;;;;;;16.27;64.29;97843.38;4217305;28;6350;-70
2022/11/10 11:08:39;;;;;;;;;;;;;;;16.28;64.21;97842.34;4202839;28;5788;-70
2022/11/10 11:10:46;;;;;;;;;;;;;;;16.29;64.13;97843.97;4202728;28;6722;-70
2022/11/10 11:12:49;;;;;;;;;;;;;;;16.29;64.09;97843.97;4202766;28;5702;-70
2022/11/10 11:14:52;;;;;;;;;;;;;;;16.29;64.09;97849.31;4202793;28;5690;-70
2022/11/10 11:16:57;;;;;;;;;;;;;;;16.29;64.11;97846.66;4202618;28;5702;-70
2022/11/10 11:19:00;;;;;;;;;;;;;;;16.34;63.92;97855.91;4202762;28;5751;-70
2022/11/10 11:21:09;;;;;;;;;;;;;;;16.35;63.61;97844.22;4202369;28;5694;-71
2022/11/10 11:23:32;;;;;;;;;;;;;;;16.36;63.74;97851.19;4209896;28;6354;-71
2022/11/10 11:25:38;;;;;;;;;;;;;;;16.38;63.67;97849.13;4219401;28;5680;-71
2022/11/10 11:27:53;;;;;;;;;;;;;;;16.38;63.55;97843.78;4219647;28;5802;-71
2022/11/10 11:30:09;;;;;;;;;;;;;;;16.40;63.42;97845.22;4219581;28;5819;-70
2022/11/10 11:32:24;;;;;;;;;;;;;;;16.42;63.15;97853.88;4219275;28;5073;-69
2022/11/10 11:34:36;;;;;;;;;;;;;;;16.39;62.87;97853.44;4219384;28;6349;-70
2022/11/10 11:36:46;;;;;;;;;;;;;;;16.36;63.15;97851.19;4219158;28;5795;-70
2022/11/10 11:38:58;;;;;;;;;;;;;;;16.38;63.15;97851.78;4219312;28;5673;-70
2022/11/10 11:41:14;;;;;;;;;;;;;;;16.39;63.22;97848.09;4219103;28;5727;-70
2022/11/10 11:43:39;;;;;;;;;;;;;;;16.40;63.13;97850.56;4219062;28;5791;-70
2022/11/10 11:45:53;;;;;;;;;;;;;;;16.40;63.14;97847.06;4218833;28;5826;-70
2022/11/10 11:48:09;;;;;;;;;;;;;;;16.39;63.13;97848.91;4219134;28;5656;-70
2022/11/10 11:50:25;;;;;;;;;;;;;;;16.39;63.12;97848.91;4219016;28;5895;-70
2022/11/10 11:52:34;;;;;;;;;;;;;;;16.39;62.93;97840.09;4218973;28;5680;-70
2022/11/10 11:54:53;;;;;;;;;;;;;;;16.38;62.80;97835.78;4218854;28;8008;-70
2022/11/10 11:57:04;;;;;;;;;;;;;;;16.33;62.88;97838.25;4218881;28;5681;-70
2022/11/10 11:59:33;;;;;;;;;;;;;;;16.30;62.92;97839.47;4219093;28;5680;-70
2022/11/10 12:01:53;;;;;;;;;;;;;;;16.28;62.97;97842.34;4218951;28;5665;-70
2022/11/10 12:04:21;;;;;;;;;;;;;;;16.30;62.74;97840.28;4218699;28;5692;-70
2022/11/10 12:06:34;;;;;;;;;;;;;;;16.32;62.76;97836.63;4218589;28;5673;-71
2022/11/10 12:08:46;;;;;;;;;;;;;;;16.29;62.63;97835.97;4218732;28;6272;-71
2022/11/10 12:10:57;;;;;;;;;;;;;;;16.29;62.46;97838.66;4214578;28;5697;-71
2022/11/10 12:13:17;;;;;;;;;;;;;;;16.28;62.24;97834.34;4201924;28;5781;-71
2022/11/10 12:15:32;;;;;;;;;;;;;;;16.27;62.42;97840.69;4202011;28;5840;-71
2022/11/10 12:17:44;;;;;;;;;;;;;;;16.29;62.15;97835.16;4201634;28;5705;-71
2022/11/10 12:19:54;;;;;;;;;;;;;;;16.32;62.31;97840.09;4201738;28;5839;-72
2022/11/10 12:22:06;;;;;;;;;;;;;;;16.31;61.93;97830.47;4201629;28;5768;-71
2022/11/10 12:24:31;;;;;;;;;;;;;;;16.30;62.16;97824.28;4201834;28;5773;-71
2022/11/10 12:26:41;;;;;;;;;;;;;;;16.33;61.88;97827.59;4201620;28;5941;-71
2022/11/10 12:28:49;;;;;;;;;;;;;;;16.35;62.01;97814.84;4201836;28;5693;-71
2022/11/10 12:30:59;;;;;;;;;;;;;;;16.38;61.85;97820.59;4201704;28;6538;-71
2022/11/10 12:33:12;;;;;;;;;;;;;;;16.42;61.73;97818.31;4201788;28;5714;-71
2022/11/10 12:35:20;;;;;;;;;;;;;;;16.43;61.31;97820.00;4201653;28;5702;-71
2022/11/10 12:37:29;;;;;;;;;;;;;;;16.42;61.26;97804.97;4201269;28;5785;-71
2022/11/10 12:39:42;;;;;;;;;;;;;;;16.43;61.52;97818.16;4201536;28;5745;-71
2022/11/10 12:41:49;;;;;;;;;;;;;;;16.47;61.26;97818.56;4201460;28;5697;-71
2022/11/10 12:44:03;;;;;;;;;;;;;;;16.49;61.41;97811.97;4214295;28;5677;-71
2022/11/10 12:46:11;;;;;;;;;;;;;;;16.49;61.27;97809.31;4216956;28;5613;-71
2022/11/10 12:48:17;;;;;;;;;;;;;;;16.51;61.15;97804.56;4218367;28;5680;-71
2022/11/10 12:50:28;;;;;;;;;;;;;;;16.50;61.06;97802.13;4218068;28;5669;-71
2022/11/10 12:52:35;;;;;;;;;;;;;;;16.52;60.98;97805.41;4217981;28;5896;-71
2022/11/10 12:54:40;;;;;;;;;;;;;;;16.54;60.95;97804.19;4218108;28;5763;-71
2022/11/10 12:56:47;;;;;;;;;;;;;;;16.56;61.03;97801.31;4218069;28;5680;-71
2022/11/10 12:59:14;;;;;;;;;;;;;;;16.57;60.91;97809.09;4213350;28;5816;-71
2022/11/10 13:01:20;;;;;;;;;;;;;;;16.59;60.91;97811.56;4200801;28;5678;-70
2022/11/10 13:03:28;;;;;;;;;;;;;;;16.61;60.65;97812.16;4201031;28;5746;-70
2022/11/10 13:05:36;;;;;;;;;;;;;;;16.63;60.73;97817.31;4201125;28;5682;-70
2022/11/10 13:07:39;;;;;;;;;;;;;;;16.68;60.70;97826.38;4200813;28;5781;-71
2022/11/10 13:09:43;;;;;;;;;;;;;;;16.67;60.50;97824.72;4201328;28;5686;-71
2022/11/10 13:12:05;;;;;;;;;;;;;;;16.68;60.55;97826.38;4200930;28;5706;-71
2022/11/10 13:14:21;;;;;;;;;;;;;;;16.72;60.38;97824.94;4201222;28;5702;-71
2022/11/10 13:16:48;;;;;;;;;;;;;;;16.74;60.34;97820.19;4201048;28;5694;-70
2022/11/10 13:18:52;;;;;;;;;;;;;;;16.76;60.20;97826.19;4201123;28;5682;-70
2022/11/10 13:20:56;;;;;;;;;;;;;;;16.76;60.28;97823.50;4200803;28;5702;-71
2022/11/10 13:22:59;;;;;;;;;;;;;;;16.78;60.23;97823.28;4200769;28;5697;-70
2022/11/10 13:25:42;;;;;;;;;;;;;;;16.78;60.38;97825.97;4201081;28;5682;-70
2022/11/10 13:27:52;;;;;;;;;;;;;;;16.78;60.22;97829.47;4200968;28;6380;-71
2022/11/10 13:29:57;;;;;;;;;;;;;;;16.76;60.20;97828.00;4200967;28;5772;-70
2022/11/10 13:32:24;;;;;;;;;;;;;;;16.77;60.25;97829.66;4201070;28;5702;-70
2022/11/10 13:34:34;;;;;;;;;;;;;;;16.78;60.22;97831.31;4200660;28;5760;-70
2022/11/10 13:36:38;;;;;;;;;;;;;;;16.78;60.07;97834.78;4200609;28;5694;-71
2022/11/10 13:38:43;;;;;;;;;;;;;;;16.79;60.04;97822.25;4200977;28;5824;-71
2022/11/10 13:40:46;;;;;;;;;;;;;;;16.77;60.09;97825.16;4200838;28;5697;-71
2022/11/10 13:43:19;;;;;;;;;;;;;;;16.75;60.20;97823.69;4200739;28;5953;-71
2022/11/10 13:45:31;;;;;;;;;;;;;;;16.74;60.01;97830.06;4200758;28;5701;-71
2022/11/10 13:47:54;;;;;;;;;;;;;;;16.74;60.14;97833.53;4200672;28;5070;-71
2022/11/10 13:50:02;;;;;;;;;;;;;;;16.73;59.99;97834.56;4200694;28;5788;-72
2022/11/10 13:52:15;;;;;;;;;;;;;;;16.73;60.01;97831.91;4200582;28;5813;-71
2022/11/10 13:54:48;;;;;;;;;;;;;;;16.75;60.07;97837.84;4199623;28;5720;-71
2022/11/10 13:57:05;;;;;;;;;;;;;;;16.76;59.67;97838.69;4200816;28;5681;-71
2022/11/10 13:59:17;;;;;;;;;;;;;;;16.75;59.99;97835.19;4200916;28;5686;-72
2022/11/10 14:01:26;;;;;;;;;;;;;;;16.77;59.92;97843.84;4200474;28;5851;-71
2022/11/10 14:03:59;;;;;;;;;;;;;;;16.80;59.88;97830.06;4210141;28;5763;-72
2022/11/10 14:06:07;;;;;;;;;;;;;;;16.83;59.89;97834.16;4217349;28;5089;-71
2022/11/10 14:08:13;;;;;;;;;;;;;;;16.84;59.88;97835.81;4217433;28;5657;-71
2022/11/10 14:10:19;;;;;;;;;;;;;;;16.85;59.86;97843.59;4217466;28;5162;-72
2022/11/10 14:12:28;;;;;;;;;;;;;;;16.88;59.91;97842.38;4219723;28;5794;-72
2022/11/10 14:14:40;;;;;;;;;;;;;;;16.90;59.81;97839.50;4220842;28;5751;-72
2022/11/10 14:16:44;;;;;;;;;;;;;;;16.90;59.82;97844.84;4220914;28;5708;-72
2022/11/10 14:18:52;;;;;;;;;;;;;;;16.91;59.73;97847.31;4220515;28;5743;-72
2022/11/10 14:20:59;;;;;;;;;;;;;;;16.92;59.73;97850.81;4220404;28;5673;-71
2022/11/10 14:23:04;;;;;;;;;;;;;;;16.92;59.66;97842.78;4220517;28;5665;-72
2022/11/10 14:25:19;;;;;;;;;;;;;;;16.90;59.64;97834.16;4220415;28;5676;-73
2022/11/10 14:27:25;;;;;;;;;;;;;;;16.91;59.64;97838.47;4219150;28;5679;-71
2022/11/10 14:29:30;;;;;;;;;;;;;;;16.92;59.70;97842.78;4219369;28;5814;-72
2022/11/10 14:31:35;;;;;;;;;;;;;;;16.91;59.55;97835.81;4220412;28;5672;-72
2022/11/10 14:33:37;;;;;;;;;;;;;;;16.90;59.41;97834.97;4220518;28;5775;-71
2022/11/10 14:35:47;;;;;;;;;;;;;;;16.91;59.49;97841.16;4220491;28;5672;-72
2022/11/10 14:37:52;;;;;;;;;;;;;;;16.92;59.36;97845.47;4218899;28;5602;-72
2022/11/10 14:39:58;;;;;;;;;;;;;;;16.92;59.42;97848.13;4220215;28;5712;-72
2022/11/10 14:42:04;;;;;;;;;;;;;;;16.92;59.43;97850.81;4220266;28;5668;-72
2022/11/10 14:44:14;;;;;;;;;;;;;;;16.91;59.62;97841.97;4220162;28;5681;-71
2022/11/10 14:46:23;;;;;;;;;;;;;;;16.93;59.31;97845.25;4220136;28;5860;-71
2022/11/10 14:48:28;;;;;;;;;;;;;;;16.93;59.36;97842.56;4220226;28;5085;-72
2022/11/10 14:50:34;;;;;;;;;;;;;;;16.93;59.42;97847.09;4219900;28;5656;-72
2022/11/10 14:52:39;;;;;;;;;;;;;;;16.91;59.14;97844.63;4220078;28;5673;-74
2022/11/10 14:54:46;;;;;;;;;;;;;;;16.90;59.31;97855.53;4220164;28;5673;-71
2022/11/10 14:56:50;;;;;;;;;;;;;;;16.88;59.42;97847.72;4220010;28;5664;-72
2022/11/10 14:58:53;;;;;;;;;;;;;;;16.88;59.20;97853.91;4219921;28;5673;-72
2022/11/10 15:00:57;;;;;;;;;;;;;;;16.88;59.32;97853.06;4219718;28;6344;-72
2022/11/10 15:03:03;;;;;;;;;;;;;;;16.87;59.17;97860.25;4219971;28;5677;-73
2022/11/10 15:05:12;;;;;;;;;;;;;;;16.85;59.29;97856.13;4219842;28;5688;-72
2022/11/10 15:07:16;;;;;;;;;;;;;;;16.86;59.32;97855.94;4219729;28;5728;-73
2022/11/10 15:09:25;;;;;;;;;;;;;;;16.87;59.31;97865.59;4219895;28;5789;-72
2022/11/10 15:11:38;;;;;;;;;;;;;;;16.87;59.36;97873.63;4216629;28;5661;-73
2022/11/10 15:13:41;;;;;;;;;;;;;;;16.85;59.12;97867.63;4207596;28;5693;-73
2022/11/10 15:15:44;;;;;;;;;;;;;;;16.84;59.30;97874.00;4202808;28;5683;-74
2022/11/10 15:17:49;;;;;;;;;;;;;;;16.83;59.35;97866.22;4212613;28;5661;-74
2022/11/10 15:19:54;;;;;;;;;;;;;;;16.83;59.28;97861.69;4206434;28;5672;-73
2022/11/10 15:22:05;;;;;;;;;;;;;;;16.84;59.17;97866.00;4209356;28;5736;-74
2022/11/10 15:24:11;;;;;;;;;;;;;;;16.83;59.39;97872.38;4212468;28;6459;-73
2022/11/10 15:26:21;;;;;;;;;;;;;;;16.83;59.39;97867.03;4211317;28;5678;-74
2022/11/10 15:28:30;;;;;;;;;;;;;;;16.82;59.37;97875.25;4218224;28;6370;-72
2022/11/10 15:30:33;;;;;;;;;;;;;;;16.81;59.39;97866.41;4215432;28;5732;-72
2022/11/10 15:32:42;;;;;;;;;;;;;;;16.80;59.33;97875.47;4213845;28;5736;-72
2022/11/10 15:34:46;;;;;;;;;;;;;;;16.81;59.42;97870.94;4211283;28;5710;-73
2022/11/10 15:36:49;;;;;;;;;;;;;;;16.78;59.22;97872.19;4209417;28;5690;-71
2022/11/10 15:39:02;;;;;;;;;;;;;;;16.77;59.37;97877.72;4213986;28;5805;-72
2022/11/10 15:41:11;;;;;;;;;;;;;;;16.75;59.30;97885.09;4216402;28;5657;-72
2022/11/10 15:43:15;;;;;;;;;;;;;;;16.72;59.23;97881.00;4214123;28;5853;-72
2022/11/10 15:45:20;;;;;;;;;;;;;;;16.69;59.48;97884.09;4212773;28;5760;-72
2022/11/10 15:47:22;;;;;;;;;;;;;;;16.70;59.38;97888.41;4211527;28;5677;-72
2022/11/10 15:49:30;;;;;;;;;;;;;;;16.71;59.38;97884.69;4211537;28;5820;-72
2022/11/10 15:51:32;;;;;;;;;;;;;;;16.71;59.41;97889.22;4215491;28;5780;-72
2022/11/10 15:53:38;;;;;;;;;;;;;;;16.68;59.45;97879.78;4211964;28;6526;-72
2022/11/10 15:55:43;;;;;;;;;;;;;;;16.69;59.37;97888.59;4207287;28;5688;-72
2022/11/10 15:57:45;;;;;;;;;;;;;;;16.67;59.23;97887.97;4209126;28;5836;-73
2022/11/10 15:59:48;;;;;;;;;;;;;;;16.65;59.57;97890.84;4214164;28;5777;-72
2022/11/10 16:01:53;;;;;;;;;;;;;;;16.64;59.45;97889.16;4210412;28;6366;-73
2022/11/10 16:03:56;;;;;;;;;;;;;;;16.64;59.62;97891.03;4212760;28;5774;-72
2022/11/10 16:05:59;;;;;;;;;;;;;;;16.62;59.38;97891.22;4210682;28;6379;-72
2022/11/10 16:08:02;;;;;;;;;;;;;;;16.64;59.32;97894.50;4211948;28;5668;-73
2022/11/10 16:10:05;;;;;;;;;;;;;;;16.61;59.37;97900.28;4218478;28;5684;-73
2022/11/10 16:12:17;;;;;;;;;;;;;;;16.63;59.24;97892.06;4213243;28;5743;-73
2022/11/10 16:14:20;;;;;;;;;;;;;;;16.63;59.29;97898.22;4215663;28;5673;-73
2022/11/10 16:16:23;;;;;;;;;;;;;;;16.63;59.38;97900.06;4205519;28;5713;-73
2022/11/10 16:18:29;;;;;;;;;;;;;;;16.59;59.41;97902.31;4210294;28;5687;-72
2022/11/10 16:20:32;;;;;;;;;;;;;;;16.59;59.46;97897.81;4209976;28;5661;-72
2022/11/10 16:22:35;;;;;;;;;;;;;;;16.58;59.30;97903.34;4212237;28;6311;-72
2022/11/10 16:24:38;;;;;;;;;;;;;;;16.57;59.38;97904.38;4208997;28;5766;-73
2022/11/10 16:26:41;;;;;;;;;;;;;;;16.58;59.31;97906.84;4206116;28;6676;-72
2022/11/10 16:28:46;;;;;;;;;;;;;;;16.57;59.45;97899.88;4211094;28;5823;-72
2022/11/10 16:30:49;;;;;;;;;;;;;;;16.59;59.34;97907.66;4210446;28;5673;-72
2022/11/10 16:32:53;;;;;;;;;;;;;;;16.59;59.48;97907.66;4205771;28;5872;-72
2022/11/10 16:34:57;;;;;;;;;;;;;;;16.57;59.44;97912.38;4208428;28;5769;-73
2022/11/10 16:37:00;;;;;;;;;;;;;;;16.53;59.44;97913.81;4207860;28;5827;-73
2022/11/10 16:39:04;;;;;;;;;;;;;;;16.54;59.43;97923.50;4209778;28;5756;-71
2022/11/10 16:41:12;;;;;;;;;;;;;;;16.55;59.40;97927.78;4209694;28;5755;-72
2022/11/10 16:43:16;;;;;;;;;;;;;;;16.54;59.36;97926.16;4210034;28;5795;-72
2022/11/10 16:45:22;;;;;;;;;;;;;;;16.52;59.38;97930.84;4211111;28;5680;-72
2022/11/10 16:47:24;;;;;;;;;;;;;;;16.55;59.22;97930.47;4204808;28;5812;-71
2022/11/10 16:49:33;;;;;;;;;;;;;;;16.54;59.38;97936.84;4216231;28;6442;-71
2022/11/10 16:51:40;;;;;;;;;;;;;;;16.51;59.35;97937.22;4202414;28;6578;-71
2022/11/10 16:53:52;;;;;;;;;;;;;;;16.52;59.49;97944.19;4215303;28;5898;-71
2022/11/10 16:55:55;;;;;;;;;;;;;;;16.51;59.73;97947.88;4213875;28;5772;-71
2022/11/10 16:57:58;;;;;;;;;;;;;;;16.50;59.54;97951.59;4208179;28;5793;-71
2022/11/10 17:00:02;;;;;;;;;;;;;;;16.49;59.46;97950.78;4211234;28;5777;-71
2022/11/10 17:02:12;;;;;;;;;;;;;;;16.47;59.73;97952.00;4210522;28;5695;-71
2022/11/10 17:04:15;;;;;;;;;;;;;;;16.46;59.65;97956.53;4202775;28;5693;-70
2022/11/10 17:06:20;;;;;;;;;;;;;;;16.46;59.56;97958.38;4216416;28;5780;-70
2022/11/10 17:08:27;;;;;;;;;;;;;;;16.45;59.58;97956.72;4209843;28;5677;-71
2022/11/10 17:10:30;;;;;;;;;;;;;;;16.44;59.52;97965.75;4212908;28;6798;-71
2022/11/10 17:12:33;;;;;;;;;;;;;;;16.43;59.64;97969.47;4213714;28;5689;-70